Terminal Aerodrome Forecast
Issued by NWS

Home | Current Version | Previous Version | Text Only | Print | Product List | Glossary On
Versions: 1 2 3 4 5 6 7 8 9 10 11 12 13 14 15 16 17 18
000
FTUS44 KEPZ 200500
TAFDMN
TAF
KDMN 200530Z 2006/2106 VRB04KT P6SM FEW040
     FM201000 VRB03KT 6SM BR FEW010 FEW120
      TEMPO 2010/2014 3SM BR SCT008
     FM201900 27008KT P6SM SCT050 SCT100=

USA.gov is the U.S. government's official web portal to all federal, state and local government web resources and services.